createdAt,value
2023-03-30T00:01:30.612Z,16.67
2023-03-30T00:03:59.126Z,13.07
2023-03-30T00:06:26.550Z,21.33
2023-03-30T00:08:57.995Z,13.57
2023-03-30T00:11:26.829Z,17.88
2023-03-30T00:13:54.523Z,15.38
2023-03-30T00:16:23.038Z,19.13
2023-03-30T00:18:50.706Z,16.40
2023-03-30T00:21:20.580Z,16.17
2023-03-30T00:23:48.969Z,17.48
2023-03-30T00:26:17.599Z,19.15
2023-03-30T00:28:46.068Z,20.15
2023-03-30T00:31:13.465Z,28.55
2023-03-30T00:33:46.355Z,20.58
2023-03-30T00:36:15.866Z,19.83
2023-03-30T00:38:44.081Z,15.65
2023-03-30T00:41:12.263Z,19.23
2023-03-30T00:44:01.146Z,16.90
2023-03-30T00:46:31.301Z,17.55
2023-03-30T00:49:05.086Z,18.85
2023-03-30T00:51:39.108Z,21.33
2023-03-30T00:54:15.755Z,17.25
2023-03-30T00:56:43.253Z,16.05
2023-03-30T00:59:11.229Z,20.70
2023-03-30T01:01:40.879Z,16.23
2023-03-30T01:04:10.110Z,19.67
2023-03-30T01:06:40.341Z,15.98
2023-03-30T01:09:08.618Z,19.27
2023-03-30T01:11:36.522Z,17.90
2023-03-30T01:14:07.692Z,14.20
2023-03-30T01:17:05.851Z,15.53
2023-03-30T01:19:52.054Z,20.77
2023-03-30T01:22:53.191Z,17.52
2023-03-30T01:25:56.518Z,15.52
2023-03-30T01:28:47.529Z,17.73
2023-03-30T01:31:36.639Z,18.17
2023-03-30T01:34:07.197Z,16.42
2023-03-30T01:36:46.391Z,19.52
2023-03-30T01:39:29.261Z,16.13
2023-03-30T01:42:05.513Z,16.42
2023-03-30T01:44:37.459Z,16.88
2023-03-30T01:47:29.178Z,18.65
2023-03-30T01:50:08.785Z,21.85
2023-03-30T01:53:09.041Z,14.05
2023-03-30T01:56:00.447Z,13.15
2023-03-30T01:58:39.537Z,12.52
2023-03-30T02:01:08.058Z,16.55
2023-03-30T02:03:39.613Z,17.10
2023-03-30T02:06:40.755Z,18.15
2023-03-30T02:09:12.733Z,17.27
2023-03-30T02:14:12.151Z,16.55
2023-03-30T02:17:03.662Z,16.00
2023-03-30T02:19:31.737Z,15.88
2023-03-30T02:22:01.180Z,20.67
2023-03-30T02:24:31.583Z,17.75
2023-03-30T02:27:02.098Z,17.27
2023-03-30T02:29:31.015Z,13.77
2023-03-30T02:31:59.616Z,17.60
2023-03-30T02:34:30.058Z,14.68
2023-03-30T02:37:30.214Z,17.17
2023-03-30T02:40:17.154Z,17.70
2023-03-30T02:43:00.481Z,22.08
2023-03-30T02:45:53.563Z,15.65
2023-03-30T02:48:27.476Z,19.95
2023-03-30T02:51:10.093Z,19.30
2023-03-30T02:54:07.661Z,22.60
2023-03-30T02:56:58.219Z,17.00
2023-03-30T02:59:46.208Z,17.20
2023-03-30T03:02:20.164Z,14.65
2023-03-30T03:04:53.467Z,13.45
2023-03-30T03:07:35.606Z,17.10
2023-03-30T03:10:03.223Z,19.58
2023-03-30T03:12:30.548Z,14.70
2023-03-30T03:14:57.904Z,20.42
2023-03-30T03:17:29.615Z,17.85
2023-03-30T03:19:57.023Z,21.40
2023-03-30T03:22:24.409Z,22.35
2023-03-30T03:24:52.319Z,17.42
2023-03-30T03:27:42.829Z,19.55
2023-03-30T03:30:18.450Z,24.70
2023-03-30T03:32:53.852Z,20.33
2023-03-30T03:35:21.786Z,21.23
2023-03-30T03:37:49.439Z,22.90
2023-03-30T03:40:16.799Z,19.85
2023-03-30T03:42:44.912Z,27.08
2023-03-30T03:45:14.293Z,18.58
2023-03-30T03:47:57.204Z,20.48
2023-03-30T03:50:41.898Z,23.08
2023-03-30T03:53:11.851Z,21.80
2023-03-30T03:55:39.176Z,20.77
2023-03-30T03:58:07.458Z,23.65
2023-03-30T04:00:34.936Z,23.08
2023-03-30T04:03:04.456Z,25.27
2023-03-30T04:05:32.590Z,28.15
2023-03-30T04:07:59.971Z,28.52
2023-03-30T04:10:27.615Z,28.48
2023-03-30T04:13:04.850Z,30.00
2023-03-30T04:15:58.697Z,26.48
2023-03-30T04:18:31.486Z,33.40
2023-03-30T04:21:22.971Z,25.45
2023-03-30T04:24:04.858Z,26.73
2023-03-30T04:26:48.918Z,31.75
2023-03-30T04:29:31.297Z,26.77
2023-03-30T04:32:22.700Z,26.52
2023-03-30T04:35:14.263Z,29.63
2023-03-30T04:38:04.145Z,23.25
2023-03-30T04:40:47.030Z,26.75
2023-03-30T04:43:38.148Z,27.92
2023-03-30T04:46:28.681Z,26.55
2023-03-30T04:49:12.374Z,28.80
2023-03-30T04:52:18.824Z,28.10
2023-03-30T04:55:11.759Z,30.70
2023-03-30T04:57:57.487Z,26.83
2023-03-30T05:00:58.122Z,27.48
2023-03-30T05:03:44.225Z,30.92
2023-03-30T05:06:34.943Z,29.35
2023-03-30T05:09:24.866Z,33.10
2023-03-30T05:12:09.477Z,26.88
2023-03-30T05:14:55.646Z,25.45
2023-03-30T05:17:40.998Z,26.83
2023-03-30T05:20:26.936Z,27.92
2023-03-30T05:23:00.433Z,29.98
2023-03-30T05:25:51.364Z,30.73
2023-03-30T05:28:48.329Z,31.23
2023-03-30T05:31:34.397Z,25.05
2023-03-30T05:34:30.885Z,27.95
2023-03-30T05:37:21.634Z,26.33
2023-03-30T05:40:18.311Z,27.75
2023-03-30T05:43:04.264Z,30.63
2023-03-30T05:45:51.961Z,25.25
2023-03-30T05:48:45.658Z,28.08
2023-03-30T05:51:30.626Z,29.92
2023-03-30T05:54:16.644Z,28.13
2023-03-30T05:57:07.303Z,25.70
2023-03-30T05:59:56.925Z,29.05
2023-03-30T06:03:03.138Z,24.05
2023-03-30T06:05:35.328Z,25.60
2023-03-30T06:08:04.548Z,24.77
2023-03-30T06:10:32.242Z,28.08
2023-03-30T06:12:59.660Z,25.25
2023-03-30T06:15:49.867Z,25.92
2023-03-30T06:18:21.387Z,33.33
2023-03-30T06:21:11.687Z,29.63
2023-03-30T06:23:58.001Z,30.00
2023-03-30T06:26:28.663Z,25.48
2023-03-30T06:28:56.253Z,28.38
2023-03-30T06:31:24.373Z,27.92
2023-03-30T06:34:01.664Z,26.63
2023-03-30T06:36:44.895Z,26.75
2023-03-30T06:39:15.261Z,25.33
2023-03-30T06:41:42.662Z,31.73
2023-03-30T06:44:25.385Z,30.23
2023-03-30T06:46:53.264Z,27.63
2023-03-30T06:49:20.794Z,29.95
2023-03-30T06:52:11.594Z,25.50
2023-03-30T06:54:39.381Z,27.33
2023-03-30T06:57:07.984Z,27.40
2023-03-30T06:59:35.466Z,29.20
2023-03-30T07:02:21.853Z,33.80
2023-03-30T07:04:50.255Z,29.38
2023-03-30T07:07:26.987Z,28.00
2023-03-30T07:09:54.514Z,32.58
2023-03-30T07:12:23.879Z,41.70
2023-03-30T07:14:52.059Z,34.83
2023-03-30T07:17:19.453Z,30.38
2023-03-30T07:19:46.788Z,35.50
2023-03-30T07:22:14.504Z,32.92
2023-03-30T07:24:42.078Z,33.67
2023-03-30T07:27:09.453Z,30.85
2023-03-30T07:29:38.395Z,28.52
2023-03-30T07:32:05.818Z,33.50
2023-03-30T07:34:33.711Z,32.72
2023-03-30T07:37:01.765Z,25.75
2023-03-30T07:39:33.960Z,25.92
2023-03-30T07:42:03.101Z,25.98
2023-03-30T07:44:30.904Z,22.92
2023-03-30T07:47:06.829Z,23.17
2023-03-30T07:49:35.443Z,23.40
2023-03-30T07:52:02.778Z,29.17
2023-03-30T07:57:17.609Z,29.10
2023-03-30T07:59:45.044Z,25.33
2023-03-30T08:02:27.207Z,25.02
2023-03-30T08:04:56.081Z,30.00
2023-03-30T08:07:30.351Z,25.13
2023-03-30T08:10:08.178Z,29.45
2023-03-30T08:12:35.559Z,21.75
2023-03-30T08:15:04.077Z,22.05
2023-03-30T08:17:31.550Z,21.05
2023-03-30T08:19:58.944Z,19.98
2023-03-30T08:22:26.286Z,21.45
2023-03-30T08:24:53.626Z,24.27
2023-03-30T08:27:21.077Z,19.70
2023-03-30T08:29:49.005Z,21.27
2023-03-30T08:32:16.490Z,22.00
2023-03-30T08:34:44.729Z,24.50
2023-03-30T08:37:12.474Z,27.02
2023-03-30T08:39:39.963Z,24.95
2023-03-30T08:42:25.288Z,19.52
2023-03-30T08:44:55.970Z,23.13
2023-03-30T08:47:45.025Z,21.25
2023-03-30T08:50:16.961Z,19.45
2023-03-30T08:52:44.961Z,21.15
2023-03-30T08:55:24.355Z,23.23
2023-03-30T08:57:59.622Z,22.50
2023-03-30T09:01:08.342Z,25.48
2023-03-30T09:03:59.431Z,20.20
2023-03-30T09:06:51.304Z,20.13
2023-03-30T09:09:21.686Z,20.33
2023-03-30T09:11:56.157Z,21.38
2023-03-30T09:14:34.912Z,19.77
2023-03-30T09:17:09.837Z,17.50
2023-03-30T09:19:49.485Z,29.05
2023-03-30T09:22:19.571Z,23.25
2023-03-30T09:24:47.275Z,21.10
2023-03-30T09:27:22.576Z,23.67
2023-03-30T09:29:53.274Z,18.95
2023-03-30T09:32:27.301Z,19.75
2023-03-30T09:35:21.680Z,22.92
2023-03-30T09:37:49.064Z,17.70
2023-03-30T09:40:34.375Z,24.05
2023-03-30T09:43:08.237Z,15.73
2023-03-30T09:45:36.570Z,18.80
2023-03-30T09:48:09.002Z,18.83
2023-03-30T09:50:45.426Z,19.17
2023-03-30T09:53:26.354Z,17.98
2023-03-30T09:56:07.161Z,18.75
2023-03-30T09:58:35.214Z,20.83
2023-03-30T10:01:09.181Z,22.17
2023-03-30T10:03:36.802Z,16.38
2023-03-30T10:06:19.608Z,24.98
2023-03-30T10:08:52.489Z,22.05
2023-03-30T10:11:22.052Z,18.83
2023-03-30T10:13:51.662Z,17.98
2023-03-30T10:16:27.123Z,20.70
2023-03-30T10:18:59.593Z,15.32
2023-03-30T10:21:32.327Z,21.17
2023-03-30T10:24:22.187Z,19.35
2023-03-30T10:26:57.088Z,24.23
2023-03-30T10:29:28.275Z,20.05
2023-03-30T10:32:00.614Z,21.03
2023-03-30T10:34:34.182Z,20.30
2023-03-30T10:37:06.792Z,19.63
2023-03-30T10:39:36.072Z,17.15
2023-03-30T10:42:05.565Z,17.65
2023-03-30T10:44:41.847Z,15.55
2023-03-30T10:47:31.381Z,23.52
2023-03-30T10:50:22.892Z,16.83
2023-03-30T10:53:22.620Z,14.80
2023-03-30T10:56:46.356Z,16.48
2023-03-30T10:59:31.437Z,18.98
2023-03-30T11:02:01.572Z,18.73
2023-03-30T11:04:38.759Z,19.17
2023-03-30T11:07:18.034Z,16.27
2023-03-30T11:09:53.513Z,16.23
2023-03-30T11:12:23.321Z,15.63
2023-03-30T11:14:57.044Z,18.95
2023-03-30T11:17:30.576Z,17.00
2023-03-30T11:20:01.739Z,16.23
2023-03-30T11:22:38.378Z,14.67
2023-03-30T11:25:19.349Z,14.48
2023-03-30T11:28:09.364Z,15.88
2023-03-30T11:30:37.441Z,15.05
2023-03-30T11:33:19.784Z,20.92
2023-03-30T11:35:54.061Z,14.35
2023-03-30T11:38:55.774Z,14.45
2023-03-30T11:41:31.609Z,13.40
2023-03-30T11:43:59.055Z,21.35
2023-03-30T11:46:35.629Z,17.40
2023-03-30T11:49:27.560Z,21.60
2023-03-30T11:52:06.693Z,19.10
2023-03-30T11:55:04.212Z,14.48
2023-03-30T11:57:35.908Z,14.52
2023-03-30T12:00:36.175Z,15.20
2023-03-30T12:03:42.577Z,13.70
2023-03-30T12:06:25.864Z,14.23
2023-03-30T12:09:05.904Z,12.57
2023-03-30T12:11:41.597Z,15.25
2023-03-30T12:14:30.653Z,13.93
2023-03-30T12:17:04.187Z,19.77
2023-03-30T12:19:55.495Z,17.63
2023-03-30T12:22:29.139Z,17.60
2023-03-30T12:25:06.306Z,16.02
2023-03-30T12:27:37.190Z,13.57
2023-03-30T12:30:23.170Z,20.73
2023-03-30T12:33:00.506Z,16.58
2023-03-30T12:35:49.449Z,15.30
2023-03-30T12:38:21.810Z,17.20
2023-03-30T12:41:03.168Z,13.38
2023-03-30T12:43:47.873Z,17.80
2023-03-30T12:46:52.976Z,14.40
2023-03-30T12:49:46.612Z,14.57
2023-03-30T12:52:33.724Z,18.85
2023-03-30T12:55:22.715Z,15.68
2023-03-30T12:58:04.954Z,17.92
2023-03-30T13:03:36.963Z,14.10
2023-03-30T13:06:10.629Z,11.32
2023-03-30T13:08:42.393Z,15.25
2023-03-30T13:11:32.545Z,15.40
2023-03-30T13:14:14.272Z,20.35
2023-03-30T13:16:50.751Z,17.80
2023-03-30T13:19:33.573Z,15.85
2023-03-30T13:22:13.139Z,14.85
2023-03-30T13:24:45.952Z,16.98
2023-03-30T13:27:19.049Z,11.13
2023-03-30T13:29:55.161Z,18.48
2023-03-30T13:32:50.337Z,14.35
2023-03-30T13:35:26.813Z,18.92
2023-03-30T13:38:17.825Z,13.52
2023-03-30T13:41:07.210Z,18.08
2023-03-30T13:44:05.491Z,15.68
2023-03-30T13:46:41.884Z,14.40
2023-03-30T13:49:18.779Z,16.08
2023-03-30T13:51:46.901Z,13.13
2023-03-30T13:54:21.931Z,15.95
2023-03-30T13:56:58.157Z,13.65
2023-03-30T13:59:31.481Z,16.20
2023-03-30T14:02:01.051Z,15.43
2023-03-30T14:04:34.206Z,17.48
2023-03-30T14:07:22.234Z,19.17
2023-03-30T14:10:22.240Z,15.43
2023-03-30T14:12:55.157Z,17.35
2023-03-30T14:15:27.500Z,16.52
2023-03-30T14:17:59.195Z,17.70
2023-03-30T14:20:43.580Z,19.10
2023-03-30T14:23:19.264Z,16.88
2023-03-30T14:25:46.540Z,16.10
2023-03-30T14:28:15.514Z,17.75
2023-03-30T14:30:54.721Z,17.80
2023-03-30T14:33:23.241Z,16.58
2023-03-30T14:35:52.305Z,18.20
2023-03-30T14:38:30.297Z,14.95
2023-03-30T14:40:58.562Z,16.40
2023-03-30T14:43:30.210Z,18.17
2023-03-30T14:46:02.725Z,17.50
2023-03-30T14:48:37.657Z,15.52
2023-03-30T14:51:37.239Z,19.88
2023-03-30T14:54:06.299Z,18.95
2023-03-30T14:56:33.859Z,18.90
2023-03-30T14:59:02.523Z,16.38
2023-03-30T15:01:32.274Z,17.85
2023-03-30T15:04:11.121Z,18.27
2023-03-30T15:06:38.684Z,16.10
2023-03-30T15:09:14.740Z,19.48
2023-03-30T15:11:44.635Z,19.45
2023-03-30T15:14:19.118Z,18.58
2023-03-30T15:16:50.593Z,18.20
2023-03-30T15:19:31.995Z,16.38
2023-03-30T15:22:03.366Z,19.67
2023-03-30T15:24:36.105Z,21.88
2023-03-30T15:27:06.993Z,14.82
2023-03-30T15:29:34.520Z,17.60
2023-03-30T15:32:28.556Z,18.98
2023-03-30T15:35:07.144Z,19.60
2023-03-30T15:37:35.752Z,18.77
2023-03-30T15:40:24.683Z,19.85
2023-03-30T15:43:15.116Z,19.90
2023-03-30T15:45:55.700Z,21.00
2023-03-30T15:48:36.001Z,20.27
2023-03-30T15:51:07.799Z,19.40
2023-03-30T15:53:41.421Z,16.65
2023-03-30T15:56:21.365Z,22.02
2023-03-30T15:58:50.020Z,22.98
2023-03-30T16:01:17.577Z,20.08
2023-03-30T16:03:55.822Z,21.63
2023-03-30T16:06:23.956Z,20.58
2023-03-30T16:08:51.306Z,20.95
2023-03-30T16:11:20.693Z,19.92
2023-03-30T16:13:48.733Z,18.88
2023-03-30T16:16:18.437Z,20.38
2023-03-30T16:18:46.090Z,21.85
2023-03-30T16:21:13.480Z,26.42
2023-03-30T16:23:41.031Z,22.27
2023-03-30T16:26:12.202Z,21.15
2023-03-30T16:28:42.525Z,22.15
2023-03-30T16:31:16.109Z,24.23
2023-03-30T16:33:44.377Z,19.25
2023-03-30T16:36:17.316Z,23.63
2023-03-30T16:38:45.302Z,17.67
2023-03-30T16:41:18.304Z,18.05
2023-03-30T16:43:46.166Z,20.30
2023-03-30T16:46:15.608Z,21.75
2023-03-30T16:48:43.357Z,18.95
2023-03-30T16:51:12.841Z,17.27
2023-03-30T16:53:41.660Z,24.88
2023-03-30T16:56:18.813Z,23.50
2023-03-30T16:58:46.838Z,23.77
2023-03-30T17:01:18.376Z,23.98
2023-03-30T17:03:46.893Z,18.23
2023-03-30T17:06:16.270Z,22.25
2023-03-30T17:08:43.615Z,16.58
2023-03-30T17:11:13.370Z,24.10
2023-03-30T17:13:41.249Z,15.25
2023-03-30T17:16:12.447Z,20.60
2023-03-30T17:18:40.053Z,22.07
2023-03-30T17:21:09.628Z,17.35
2023-03-30T17:23:37.059Z,21.05
2023-03-30T17:26:04.372Z,27.58
2023-03-30T17:28:34.524Z,19.40
2023-03-30T17:31:04.251Z,24.88
2023-03-30T17:33:32.048Z,21.00
2023-03-30T17:36:07.050Z,21.52
2023-03-30T17:38:34.525Z,22.60
2023-03-30T17:41:01.858Z,20.60
2023-03-30T17:43:29.214Z,22.48
2023-03-30T17:45:56.656Z,19.27
2023-03-30T17:48:25.379Z,21.10
2023-03-30T17:50:52.732Z,27.17
2023-03-30T17:53:21.249Z,20.60
2023-03-30T17:55:52.373Z,20.23
2023-03-30T17:58:25.894Z,18.23
2023-03-30T18:00:53.583Z,17.15
2023-03-30T18:03:22.555Z,18.83
2023-03-30T18:05:50.613Z,14.73
2023-03-30T18:08:21.359Z,20.10
2023-03-30T18:10:51.613Z,23.35
2023-03-30T18:13:20.864Z,22.80
2023-03-30T18:15:50.190Z,20.90
2023-03-30T18:18:22.983Z,23.30
2023-03-30T18:21:05.388Z,16.13
2023-03-30T18:23:37.260Z,19.40
2023-03-30T18:26:09.490Z,18.63
2023-03-30T18:28:43.776Z,16.63
2023-03-30T18:31:11.950Z,25.63
2023-03-30T18:33:39.612Z,14.90
2023-03-30T18:36:12.970Z,21.20
2023-03-30T18:38:41.144Z,20.25
2023-03-30T18:41:12.314Z,24.98
2023-03-30T18:43:39.684Z,23.17
2023-03-30T18:46:09.669Z,19.45
2023-03-30T18:48:37.187Z,22.42
2023-03-30T18:51:04.480Z,24.27
2023-03-30T18:53:31.815Z,18.90
2023-03-30T18:56:00.539Z,22.73
2023-03-30T18:58:41.696Z,26.17
2023-03-30T19:01:09.652Z,20.75
2023-03-30T19:03:37.166Z,19.73
2023-03-30T19:06:05.000Z,21.50
2023-03-30T19:08:32.885Z,21.20
2023-03-30T19:11:00.337Z,19.85
2023-03-30T19:13:27.726Z,21.38
2023-03-30T19:15:56.315Z,20.73
2023-03-30T19:18:23.691Z,19.17
2023-03-30T19:20:51.934Z,23.73
2023-03-30T19:23:24.360Z,20.08
2023-03-30T19:25:52.178Z,22.67
2023-03-30T19:28:19.586Z,27.67
2023-03-30T19:30:47.422Z,23.23
2023-03-30T19:33:16.707Z,23.00
2023-03-30T19:35:45.589Z,20.38
2023-03-30T19:38:13.714Z,19.17
2023-03-30T19:40:41.472Z,23.58
2023-03-30T19:43:09.380Z,22.15
2023-03-30T19:45:37.245Z,23.35
2023-03-30T19:48:05.029Z,23.48
2023-03-30T19:50:32.704Z,30.70
2023-03-30T19:53:00.092Z,22.63
2023-03-30T19:55:27.921Z,24.98
2023-03-30T19:57:55.786Z,26.02
2023-03-30T20:00:23.830Z,24.02
2023-03-30T20:02:53.564Z,26.00
2023-03-30T20:05:23.510Z,26.65
2023-03-30T20:07:51.558Z,26.35
2023-03-30T20:10:24.633Z,25.25
2023-03-30T20:12:53.034Z,24.85
2023-03-30T20:15:23.877Z,26.95
2023-03-30T20:17:56.379Z,25.55
2023-03-30T20:20:25.528Z,24.15
2023-03-30T20:22:56.399Z,29.17
2023-03-30T20:25:24.861Z,21.55
2023-03-30T20:27:53.233Z,24.42
2023-03-30T20:30:21.093Z,23.65
2023-03-30T20:33:03.688Z,25.08
2023-03-30T20:35:35.899Z,24.92
2023-03-30T20:38:04.654Z,24.98
2023-03-30T20:40:32.820Z,25.55
2023-03-30T20:43:03.574Z,23.83
2023-03-30T20:45:31.941Z,26.40
2023-03-30T20:48:16.189Z,22.40
2023-03-30T20:50:43.640Z,22.10
2023-03-30T20:53:11.045Z,24.45
2023-03-30T20:55:38.311Z,27.40
2023-03-30T20:58:05.782Z,25.60
2023-03-30T21:00:33.159Z,24.77
2023-03-30T21:03:01.824Z,24.40
2023-03-30T21:05:29.236Z,30.20
2023-03-30T21:07:59.249Z,26.40
2023-03-30T21:10:27.541Z,21.55
2023-03-30T21:12:54.835Z,21.67
2023-03-30T21:15:22.139Z,23.30
2023-03-30T21:17:49.776Z,23.13
2023-03-30T21:20:17.816Z,23.13
2023-03-30T21:22:45.148Z,25.80
2023-03-30T21:25:13.971Z,23.70
2023-03-30T21:27:41.357Z,26.63
2023-03-30T21:30:12.140Z,28.73
2023-03-30T21:32:39.553Z,24.20
2023-03-30T21:35:07.089Z,27.30
2023-03-30T21:37:34.450Z,26.40
2023-03-30T21:40:01.823Z,24.80
2023-03-30T21:42:29.124Z,26.17
2023-03-30T21:44:56.396Z,28.75
2023-03-30T21:47:23.775Z,26.27
2023-03-30T21:49:52.226Z,24.13
2023-03-30T21:52:19.680Z,26.50
2023-03-30T21:54:46.911Z,27.25
2023-03-30T21:57:14.339Z,27.65
2023-03-30T21:59:41.742Z,23.10
2023-03-30T22:02:09.077Z,27.95
2023-03-30T22:04:36.532Z,24.40
2023-03-30T22:07:04.624Z,24.63
2023-03-30T22:09:31.897Z,27.20
2023-03-30T22:11:59.344Z,24.65
2023-03-30T22:14:26.697Z,25.70
2023-03-30T22:16:54.095Z,27.00
2023-03-30T22:19:24.708Z,22.92
2023-03-30T22:21:52.062Z,33.45
2023-03-30T22:24:20.271Z,26.63
2023-03-30T22:26:49.190Z,27.85
2023-03-30T22:29:17.312Z,24.33
2023-03-30T22:31:44.647Z,25.30
2023-03-30T22:34:12.062Z,28.88
2023-03-30T22:36:39.474Z,28.58
2023-03-30T22:39:06.820Z,23.35
2023-03-30T22:41:34.186Z,25.33
2023-03-30T22:44:01.541Z,26.48
2023-03-30T22:46:28.872Z,28.90
2023-03-30T22:48:56.339Z,38.85
2023-03-30T22:51:27.399Z,27.02
2023-03-30T22:53:58.658Z,26.42
2023-03-30T22:56:27.740Z,29.17
2023-03-30T22:58:55.421Z,26.35
2023-03-30T23:01:23.350Z,28.25
2023-03-30T23:03:52.933Z,29.83
2023-03-30T23:06:20.498Z,23.95
2023-03-30T23:08:48.695Z,24.88
2023-03-30T23:11:16.979Z,25.08
2023-03-30T23:13:44.474Z,27.33
2023-03-30T23:16:11.842Z,25.05
2023-03-30T23:18:39.507Z,27.92
2023-03-30T23:21:08.248Z,29.50
2023-03-30T23:23:36.781Z,27.67
2023-03-30T23:26:08.800Z,26.05
2023-03-30T23:28:39.005Z,22.85
2023-03-30T23:31:12.190Z,26.17
2023-03-30T23:33:43.502Z,27.33
2023-03-30T23:36:16.949Z,24.30
2023-03-30T23:38:45.417Z,29.10
2023-03-30T23:41:15.007Z,26.20
2023-03-30T23:43:43.070Z,25.17
2023-03-30T23:46:10.929Z,26.45
2023-03-30T23:48:38.589Z,33.38
2023-03-30T23:51:06.761Z,33.03
2023-03-30T23:53:34.231Z,25.00
2023-03-30T23:56:06.237Z,29.80
2023-03-30T23:58:33.798Z,25.73
